createdAt,value
2023-09-23T00:00:04.533Z,98922.53
2023-09-23T00:02:32.147Z,98929.78
2023-09-23T00:05:00.139Z,98939.31
2023-09-23T00:07:29.209Z,98933.97
2023-09-23T00:09:56.772Z,98944.44
2023-09-23T00:12:24.511Z,98943.84
2023-09-23T00:14:52.639Z,98947.97
2023-09-23T00:17:21.858Z,98955.66
2023-09-23T00:19:49.466Z,98959.47
2023-09-23T00:22:18.040Z,98953.09
2023-09-23T00:24:45.986Z,98960.28
2023-09-23T00:27:13.915Z,98961.00
2023-09-23T00:29:41.569Z,98969.09
2023-09-23T00:32:09.158Z,98968.88
2023-09-23T00:34:38.837Z,98962.97
2023-09-23T00:37:08.393Z,98972.03
2023-09-23T00:39:42.810Z,98975.19
2023-09-23T00:42:11.313Z,98978.97
2023-09-23T00:44:42.587Z,98981.91
2023-09-23T00:47:14.846Z,98996.91
2023-09-23T00:49:45.778Z,98996.34
2023-09-23T00:52:15.316Z,99008.16
2023-09-23T00:54:47.185Z,99010.38
2023-09-23T00:57:17.944Z,99020.13
2023-09-23T00:59:45.532Z,99011.81
2023-09-23T01:02:15.131Z,99016.22
2023-09-23T01:04:44.875Z,99014.25
2023-09-23T01:07:12.965Z,99018.19
2023-09-23T01:09:41.214Z,99020.06
2023-09-23T01:12:10.385Z,99020.31
2023-09-23T01:14:38.699Z,99022.41
2023-09-23T01:17:12.974Z,99022.91
2023-09-23T01:19:40.840Z,99026.78
2023-09-23T01:22:09.921Z,99030.56
2023-09-23T01:24:38.892Z,99031.59
2023-09-23T01:27:06.447Z,99034.84
2023-09-23T01:29:34.278Z,99038.50
2023-09-23T01:32:14.931Z,99041.16
2023-09-23T01:34:42.547Z,99050.91
2023-09-23T01:37:10.399Z,99051.09
2023-09-23T01:39:41.555Z,99051.53
2023-09-23T01:42:09.523Z,99051.81
2023-09-23T01:44:37.546Z,99045.25
2023-09-23T01:47:05.831Z,99047.72
2023-09-23T01:49:33.465Z,99059.41
2023-09-23T01:52:03.771Z,99059.66
2023-09-23T01:54:31.361Z,99055.13
2023-09-23T01:57:00.338Z,99057.28
2023-09-23T01:59:27.981Z,99075.69
2023-09-23T02:01:55.584Z,99069.69
2023-09-23T02:04:23.296Z,99072.72
2023-09-23T02:06:52.754Z,99069.91
2023-09-23T02:09:20.312Z,99073.00
2023-09-23T02:11:49.238Z,99069.06
2023-09-23T02:14:18.192Z,99072.31
2023-09-23T02:16:48.228Z,99077.94
2023-09-23T02:19:15.882Z,99090.94
2023-09-23T02:21:43.436Z,99096.66
2023-09-23T02:24:10.982Z,99092.78
2023-09-23T02:26:38.522Z,99102.13
2023-09-23T02:29:07.810Z,99107.06
2023-09-23T02:31:37.010Z,99114.28
2023-09-23T02:34:07.055Z,99123.31
2023-09-23T02:36:36.293Z,99119.63
2023-09-23T02:39:11.912Z,99119.16
2023-09-23T02:41:39.604Z,99122.53
2023-09-23T02:44:07.301Z,99131.94
2023-09-23T02:46:36.311Z,99124.19
2023-09-23T02:49:04.007Z,99128.25
2023-09-23T02:51:31.580Z,99131.78
2023-09-23T02:53:59.159Z,99123.00
2023-09-23T02:56:28.370Z,99122.28
2023-09-23T02:58:57.564Z,99117.34
2023-09-23T03:01:26.779Z,99115.44
2023-09-23T03:03:56.356Z,99110.22
2023-09-23T03:06:24.999Z,99122.31
2023-09-23T03:08:55.331Z,99117.41
2023-09-23T03:11:24.131Z,99128.56
2023-09-23T03:13:53.952Z,99123.19
2023-09-23T03:16:29.741Z,99133.09
2023-09-23T03:19:11.645Z,99123.13
2023-09-23T03:21:42.206Z,99126.78
2023-09-23T03:24:11.249Z,99130.00
2023-09-23T03:26:39.014Z,99133.84
2023-09-23T03:29:07.622Z,99128.09
2023-09-23T03:31:36.062Z,99137.66
2023-09-23T03:34:05.109Z,99128.88
2023-09-23T03:36:33.420Z,99132.59
2023-09-23T03:39:01.865Z,99137.72
2023-09-23T03:41:29.612Z,99135.13
2023-09-23T03:43:57.239Z,99138.81
2023-09-23T03:46:25.662Z,99134.63
2023-09-23T03:48:53.357Z,99141.81
2023-09-23T03:51:22.322Z,99147.13
2023-09-23T03:53:52.232Z,99139.88
2023-09-23T03:56:20.498Z,99146.97
2023-09-23T03:58:48.227Z,99145.97
2023-09-23T04:01:15.919Z,99149.47
2023-09-23T04:03:43.855Z,99154.22
2023-09-23T04:06:12.755Z,99156.78
2023-09-23T04:08:42.021Z,99164.38
2023-09-23T04:11:10.088Z,99166.63
2023-09-23T04:13:39.175Z,99171.69
2023-09-23T04:16:07.495Z,99173.59
2023-09-23T04:18:35.140Z,99178.31
2023-09-23T04:21:03.199Z,99182.25
2023-09-23T04:23:30.746Z,99192.88
2023-09-23T04:26:01.009Z,99185.25
2023-09-23T04:28:28.558Z,99191.47
2023-09-23T04:30:58.604Z,99193.06
2023-09-23T04:33:28.610Z,99185.78
2023-09-23T04:35:58.037Z,99189.66
2023-09-23T04:38:26.161Z,99187.47
2023-09-23T04:40:54.210Z,99187.75
2023-09-23T04:43:26.257Z,99186.38
2023-09-23T04:45:53.861Z,99189.81
2023-09-23T04:48:21.860Z,99194.06
2023-09-23T04:50:49.544Z,99200.78
2023-09-23T04:53:17.428Z,99201.06
2023-09-23T04:55:46.942Z,99211.16
2023-09-23T04:58:14.595Z,99215.41
2023-09-23T05:00:43.566Z,99214.75
2023-09-23T05:03:11.161Z,99215.06
2023-09-23T05:05:38.899Z,99224.81
2023-09-23T05:08:11.301Z,99229.13
2023-09-23T05:10:40.535Z,99233.41
2023-09-23T05:13:10.629Z,99229.78
2023-09-23T05:15:38.546Z,99235.56
2023-09-23T05:18:09.454Z,99243.03
2023-09-23T05:20:37.229Z,99244.88
2023-09-23T05:23:06.693Z,99252.38
2023-09-23T05:25:34.513Z,99253.56
2023-09-23T05:28:03.756Z,99259.66
2023-09-23T05:30:31.383Z,99279.03
2023-09-23T05:32:58.951Z,99274.34
2023-09-23T05:35:29.012Z,99276.13
2023-09-23T05:37:56.627Z,99281.38
2023-09-23T05:40:28.734Z,99286.09
2023-09-23T05:42:56.733Z,99294.13
2023-09-23T05:45:25.600Z,99299.19
2023-09-23T05:47:54.211Z,99303.25
2023-09-23T05:50:22.625Z,99307.41
2023-09-23T05:52:53.512Z,99312.44
2023-09-23T05:55:21.313Z,99310.31
2023-09-23T05:57:50.155Z,99321.63
2023-09-23T06:00:19.156Z,99323.59
2023-09-23T06:02:48.887Z,99330.22
2023-09-23T06:05:17.011Z,99327.63
2023-09-23T06:07:44.640Z,99335.16
2023-09-23T06:10:16.084Z,99349.50
2023-09-23T06:12:44.027Z,99349.47
2023-09-23T06:15:12.077Z,99354.19
2023-09-23T06:17:39.874Z,99355.59
2023-09-23T06:20:10.712Z,99359.13
2023-09-23T06:22:38.661Z,99366.19
2023-09-23T06:25:07.478Z,99365.34
2023-09-23T06:27:37.291Z,99373.47
2023-09-23T06:30:06.336Z,99374.16
2023-09-23T06:32:34.749Z,99382.50
2023-09-23T06:35:02.787Z,99384.19
2023-09-23T06:37:30.479Z,99386.97
2023-09-23T06:39:58.523Z,99389.91
2023-09-23T06:42:26.094Z,99395.13
2023-09-23T06:44:54.987Z,99396.63
2023-09-23T06:47:22.596Z,99403.47
2023-09-23T06:49:50.211Z,99409.06
2023-09-23T06:52:17.778Z,99423.00
2023-09-23T06:54:45.568Z,99426.75
2023-09-23T06:57:14.377Z,99425.59
2023-09-23T06:59:41.983Z,99431.78
2023-09-23T07:02:11.099Z,99438.16
2023-09-23T07:04:38.799Z,99448.53
2023-09-23T07:07:06.382Z,99448.31
2023-09-23T07:09:34.273Z,99453.22
2023-09-23T07:12:01.841Z,99451.13
2023-09-23T07:14:31.524Z,99451.00
2023-09-23T07:16:59.224Z,99452.72
2023-09-23T07:19:28.152Z,99456.66
2023-09-23T07:21:55.723Z,99456.53
2023-09-23T07:24:23.263Z,99463.94
2023-09-23T07:26:50.816Z,99466.09
2023-09-23T07:29:18.379Z,99457.75
2023-09-23T07:31:45.981Z,99462.97
2023-09-23T07:34:13.628Z,99467.34
2023-09-23T07:36:44.026Z,99468.84
2023-09-23T07:39:12.448Z,99477.75
2023-09-23T07:41:39.978Z,99483.72
2023-09-23T07:44:08.199Z,99487.97
2023-09-23T07:46:35.904Z,99486.47
2023-09-23T07:49:05.563Z,99490.97
2023-09-23T07:51:33.345Z,99493.34
2023-09-23T07:54:02.786Z,99493.88
2023-09-23T07:56:30.364Z,99499.00
2023-09-23T07:58:59.718Z,99501.47
2023-09-23T08:01:27.292Z,99502.22
2023-09-23T08:03:54.892Z,99513.25
2023-09-23T08:06:22.450Z,99526.34
2023-09-23T08:08:50.157Z,99525.38
2023-09-23T08:11:19.062Z,99527.41
2023-09-23T08:13:47.119Z,99535.34
2023-09-23T08:16:14.867Z,99537.91
2023-09-23T08:18:42.609Z,99544.56
2023-09-23T08:21:10.171Z,99543.09
2023-09-23T08:23:37.746Z,99548.84
2023-09-23T08:26:06.115Z,99545.53
2023-09-23T08:28:36.043Z,99557.53
2023-09-23T08:31:03.593Z,99551.91
2023-09-23T08:33:31.457Z,99555.09
2023-09-23T08:35:59.032Z,99560.03
2023-09-23T08:38:26.617Z,99562.63
2023-09-23T08:40:55.023Z,99568.94
2023-09-23T08:43:37.196Z,99577.69
2023-09-23T08:46:07.145Z,99572.41
2023-09-23T08:48:36.526Z,99581.78
2023-09-23T08:51:05.262Z,99581.38
2023-09-23T08:53:35.770Z,99584.38
2023-09-23T08:56:03.355Z,99581.50
2023-09-23T08:58:31.710Z,99584.56
2023-09-23T09:00:59.449Z,99589.78
2023-09-23T09:03:28.849Z,99590.81
2023-09-23T09:05:57.056Z,99583.75
2023-09-23T09:08:24.831Z,99589.03
2023-09-23T09:10:52.514Z,99587.56
2023-09-23T09:13:20.177Z,99605.41
2023-09-23T09:15:47.730Z,99594.25
2023-09-23T09:18:15.902Z,99606.47
2023-09-23T09:20:44.916Z,99597.00
2023-09-23T09:23:16.008Z,99601.69
2023-09-23T09:25:50.670Z,99605.72
2023-09-23T09:28:20.632Z,99614.81
2023-09-23T09:30:55.305Z,99616.94
2023-09-23T09:33:26.744Z,99619.69
2023-09-23T09:35:57.339Z,99616.78
2023-09-23T09:38:25.977Z,99621.91
2023-09-23T09:41:03.823Z,99622.19
2023-09-23T09:43:34.251Z,99618.91
2023-09-23T09:46:09.145Z,99616.69
2023-09-23T09:48:40.428Z,99624.03
2023-09-23T09:51:10.461Z,99620.88
2023-09-23T09:53:39.058Z,99630.06
2023-09-23T09:56:08.000Z,99629.75
2023-09-23T09:58:39.384Z,99635.84
2023-09-23T10:01:12.865Z,99633.06
2023-09-23T10:03:42.518Z,99636.28
2023-09-23T10:06:19.901Z,99638.91
2023-09-23T10:08:49.264Z,99634.69
2023-09-23T10:11:18.097Z,99637.31
2023-09-23T10:13:47.206Z,99634.59
2023-09-23T10:16:18.402Z,99635.22
2023-09-23T10:18:46.752Z,99632.78
2023-09-23T10:21:25.529Z,99648.66
2023-09-23T10:23:54.366Z,99648.91
2023-09-23T10:26:24.286Z,99639.72
2023-09-23T10:28:59.348Z,99643.06
2023-09-23T10:31:27.151Z,99647.31
2023-09-23T10:33:55.593Z,99650.63
2023-09-23T10:36:25.737Z,99650.03
2023-09-23T10:38:53.447Z,99652.34
2023-09-23T10:41:21.135Z,99665.59
2023-09-23T10:43:54.831Z,99665.09
2023-09-23T10:46:22.669Z,99670.34
2023-09-23T10:48:50.256Z,99668.88
2023-09-23T10:51:18.058Z,99670.25
2023-09-23T10:53:47.149Z,99675.13
2023-09-23T10:56:14.711Z,99677.97
2023-09-23T10:58:42.665Z,99672.81
2023-09-23T11:01:10.411Z,99675.72
2023-09-23T11:03:41.807Z,99684.47
2023-09-23T11:06:09.942Z,99682.19
2023-09-23T11:08:38.201Z,99691.22
2023-09-23T11:11:10.949Z,99696.97
2023-09-23T11:13:38.665Z,99682.66
2023-09-23T11:16:10.936Z,99692.25
2023-09-23T11:18:39.464Z,99697.97
2023-09-23T11:21:07.370Z,99703.84
2023-09-23T11:23:35.715Z,99706.88
2023-09-23T11:26:04.109Z,99709.72
2023-09-23T11:28:33.015Z,99711.53
2023-09-23T11:31:00.667Z,99722.91
2023-09-23T11:33:28.299Z,99724.44
2023-09-23T11:35:58.691Z,99724.19
2023-09-23T11:38:26.469Z,99730.19
2023-09-23T11:40:55.613Z,99730.59
2023-09-23T11:43:23.372Z,99726.41
2023-09-23T11:45:52.336Z,99730.69
2023-09-23T11:48:21.350Z,99725.19
2023-09-23T11:50:49.343Z,99726.78
2023-09-23T11:53:16.964Z,99735.03
2023-09-23T11:55:44.636Z,99743.19
2023-09-23T11:58:12.220Z,99744.78
2023-09-23T12:00:39.805Z,99737.34
2023-09-23T12:03:08.809Z,99745.44
2023-09-23T12:05:36.420Z,99753.13
2023-09-23T12:08:05.070Z,99756.22
2023-09-23T12:10:32.715Z,99750.72
2023-09-23T12:13:06.248Z,99747.38
2023-09-23T12:15:35.088Z,99750.59
2023-09-23T12:18:02.877Z,99752.19
2023-09-23T12:20:33.128Z,99749.88
2023-09-23T12:23:01.869Z,99758.81
2023-09-23T12:25:29.705Z,99773.09
2023-09-23T12:27:57.245Z,99766.31
2023-09-23T12:30:24.929Z,99770.16
2023-09-23T12:32:52.514Z,99770.50
2023-09-23T12:35:20.221Z,99775.59
2023-09-23T12:37:49.559Z,99771.16
2023-09-23T12:40:17.241Z,99771.28
2023-09-23T12:42:48.635Z,99779.00
2023-09-23T12:45:16.202Z,99775.16
2023-09-23T12:47:55.933Z,99773.81
2023-09-23T12:50:24.260Z,99779.97
2023-09-23T12:52:54.255Z,99786.38
2023-09-23T12:55:22.058Z,99775.69
2023-09-23T12:57:50.287Z,99775.25
2023-09-23T13:00:18.129Z,99785.19
2023-09-23T13:02:45.975Z,99789.19
2023-09-23T13:05:16.390Z,99782.31
2023-09-23T13:07:44.239Z,99783.28
2023-09-23T13:10:14.840Z,99790.00
2023-09-23T13:12:43.696Z,99788.41
2023-09-23T13:15:11.893Z,99789.63
2023-09-23T13:17:39.618Z,99790.94
2023-09-23T13:20:08.257Z,99787.28
2023-09-23T13:22:35.822Z,99803.91
2023-09-23T13:25:04.773Z,99795.75
2023-09-23T13:27:34.292Z,99804.72
2023-09-23T13:30:01.888Z,99799.50
2023-09-23T13:32:29.929Z,99808.50
2023-09-23T13:34:57.643Z,99805.69
2023-09-23T13:37:25.187Z,99808.69
2023-09-23T13:39:53.199Z,99808.69
2023-09-23T13:42:20.760Z,99818.47
2023-09-23T13:44:51.014Z,99827.38
2023-09-23T13:47:19.143Z,99825.13
2023-09-23T13:49:46.816Z,99824.19
2023-09-23T13:52:14.609Z,99827.63
2023-09-23T13:54:42.267Z,99827.25
2023-09-23T13:57:10.006Z,99830.34
2023-09-23T13:59:37.587Z,99833.78
2023-09-23T14:02:06.683Z,99840.28
2023-09-23T14:04:34.431Z,99847.22
2023-09-23T14:07:02.013Z,99840.25
2023-09-23T14:09:29.562Z,99834.59
2023-09-23T14:11:57.854Z,99840.59
2023-09-23T14:14:25.498Z,99847.69
2023-09-23T14:16:53.189Z,99838.34
2023-09-23T14:19:22.070Z,99838.59
2023-09-23T14:21:49.880Z,99857.56
2023-09-23T14:24:17.537Z,99845.00
2023-09-23T14:26:45.520Z,99842.75
2023-09-23T14:29:13.434Z,99847.53
2023-09-23T14:31:41.046Z,99848.66
2023-09-23T14:34:09.244Z,99853.84
2023-09-23T14:36:38.788Z,99864.34
2023-09-23T14:39:06.611Z,99857.59
2023-09-23T14:41:35.983Z,99866.94
2023-09-23T14:44:04.574Z,99862.28
2023-09-23T14:46:32.614Z,99867.00
2023-09-23T14:49:00.330Z,99866.25
2023-09-23T14:51:28.243Z,99873.47
2023-09-23T14:53:57.638Z,99872.31
2023-09-23T14:56:27.273Z,99870.66
2023-09-23T14:58:54.863Z,99879.00
2023-09-23T15:01:22.570Z,99881.94
2023-09-23T15:03:50.431Z,99883.16
2023-09-23T15:06:18.050Z,99892.06
2023-09-23T15:08:58.186Z,99897.28
2023-09-23T15:11:29.702Z,99890.94
2023-09-23T15:13:58.343Z,99896.84
2023-09-23T15:16:26.206Z,99899.56
2023-09-23T15:18:54.020Z,99898.47
2023-09-23T15:21:22.378Z,99896.66
2023-09-23T15:23:50.224Z,99906.81
2023-09-23T15:26:18.856Z,99906.44
2023-09-23T15:28:48.188Z,99905.25
2023-09-23T15:31:15.860Z,99913.56
2023-09-23T15:33:43.920Z,99919.22
2023-09-23T15:36:13.408Z,99931.44
2023-09-23T15:38:41.261Z,99928.25
2023-09-23T15:41:10.120Z,99928.88
2023-09-23T15:43:38.574Z,99939.19
2023-09-23T15:46:07.562Z,99938.81
2023-09-23T15:48:35.711Z,99941.50
2023-09-23T15:51:11.009Z,99944.06
2023-09-23T15:53:38.961Z,99958.91
2023-09-23T15:56:07.861Z,99956.97
2023-09-23T15:58:35.712Z,99956.81
2023-09-23T16:01:05.319Z,99969.69
2023-09-23T16:03:35.030Z,99965.25
2023-09-23T16:06:03.087Z,99973.38
2023-09-23T16:08:30.943Z,99977.03
2023-09-23T16:10:58.906Z,99977.84
2023-09-23T16:13:26.443Z,99977.03
2023-09-23T16:15:54.323Z,99976.88
2023-09-23T16:18:23.376Z,99982.25
2023-09-23T16:20:52.923Z,99995.75
2023-09-23T16:23:20.759Z,99993.63
2023-09-23T16:25:48.412Z,99996.19
2023-09-23T16:28:16.001Z,99993.53
2023-09-23T16:30:43.730Z,100008.16
2023-09-23T16:33:12.385Z,100010.81
2023-09-23T16:35:40.073Z,100010.09
2023-09-23T16:38:09.172Z,100008.91
2023-09-23T16:40:37.086Z,100012.78
2023-09-23T16:43:04.978Z,100016.16
2023-09-23T16:45:32.721Z,100022.81
2023-09-23T16:48:00.445Z,100018.72
2023-09-23T16:50:28.338Z,100028.06
2023-09-23T16:52:55.895Z,100028.84
2023-09-23T16:55:24.818Z,100036.91
2023-09-23T16:57:52.524Z,100036.41
2023-09-23T17:00:20.099Z,100028.91
2023-09-23T17:02:48.028Z,100038.69
2023-09-23T17:05:16.028Z,100034.63
2023-09-23T17:07:43.652Z,100048.91
2023-09-23T17:10:11.791Z,100049.78
2023-09-23T17:12:40.755Z,100058.47
2023-09-23T17:15:09.901Z,100057.56
2023-09-23T17:17:37.697Z,100056.84
2023-09-23T17:20:06.575Z,100061.41
2023-09-23T17:22:34.436Z,100076.16
2023-09-23T17:25:02.248Z,100082.69
2023-09-23T17:27:29.908Z,100079.03
2023-09-23T17:29:58.820Z,100081.28
2023-09-23T17:32:26.556Z,100084.88
2023-09-23T17:34:54.173Z,100086.13
2023-09-23T17:37:22.195Z,100100.78
2023-09-23T17:39:49.934Z,100100.56
2023-09-23T17:42:17.526Z,100105.56
2023-09-23T17:44:46.616Z,100107.81
2023-09-23T17:47:15.910Z,100117.19
2023-09-23T17:49:43.484Z,100124.53
2023-09-23T17:52:11.085Z,100116.53
2023-09-23T17:54:38.760Z,100131.47
2023-09-23T17:57:06.585Z,100137.47
2023-09-23T17:59:34.993Z,100133.81
2023-09-23T18:02:02.699Z,100146.44
2023-09-23T18:04:31.792Z,100142.69
2023-09-23T18:07:00.422Z,100143.66
2023-09-23T18:09:28.258Z,100151.53
2023-09-23T18:11:56.271Z,100146.91
2023-09-23T18:14:23.993Z,100151.97
2023-09-23T18:16:51.641Z,100154.34
2023-09-23T18:19:19.591Z,100154.88
2023-09-23T18:21:48.918Z,100157.78
2023-09-23T18:24:16.677Z,100159.06
2023-09-23T18:26:44.389Z,100163.81
2023-09-23T18:29:12.856Z,100168.44
2023-09-23T18:31:42.121Z,100172.53
2023-09-23T18:34:09.852Z,100185.34
2023-09-23T18:36:37.457Z,100178.47
2023-09-23T18:39:07.118Z,100190.72
2023-09-23T18:41:35.760Z,100189.00
2023-09-23T18:44:04.568Z,100203.97
2023-09-23T18:46:32.146Z,100209.78
2023-09-23T18:48:59.820Z,100202.56
2023-09-23T18:51:27.806Z,100205.38
2023-09-23T18:53:54.692Z,100211.41
2023-09-23T18:56:24.530Z,100220.44
2023-09-23T18:58:52.405Z,100208.59
2023-09-23T19:01:20.303Z,100215.50
2023-09-23T19:03:48.234Z,100224.84
2023-09-23T19:06:16.419Z,100222.81
2023-09-23T19:08:44.968Z,100224.34
2023-09-23T19:11:14.119Z,100232.84
2023-09-23T19:13:43.274Z,100232.28
2023-09-23T19:16:11.574Z,100240.59
2023-09-23T19:18:39.181Z,100237.69
2023-09-23T19:21:06.826Z,100248.91
2023-09-23T19:23:34.581Z,100254.28
2023-09-23T19:26:04.001Z,100256.22
2023-09-23T19:28:31.886Z,100261.69
2023-09-23T19:31:00.940Z,100265.50
2023-09-23T19:33:28.558Z,100271.81
2023-09-23T19:35:56.386Z,100275.38
2023-09-23T19:38:24.029Z,100271.72
2023-09-23T19:40:51.641Z,100273.22
2023-09-23T19:43:19.650Z,100279.50
2023-09-23T19:45:54.835Z,100280.53
2023-09-23T19:48:23.900Z,100287.31
2023-09-23T19:50:52.194Z,100282.88
2023-09-23T19:53:19.930Z,100293.47
2023-09-23T19:55:47.633Z,100293.16
2023-09-23T19:58:17.564Z,100295.19
2023-09-23T20:00:45.221Z,100293.78
2023-09-23T20:03:14.878Z,100297.53
2023-09-23T20:05:44.051Z,100298.63
2023-09-23T20:08:12.608Z,100300.16
2023-09-23T20:10:40.220Z,100303.56
2023-09-23T20:13:07.887Z,100302.94
2023-09-23T20:15:37.325Z,100307.25
2023-09-23T20:18:07.557Z,100305.72
2023-09-23T20:20:37.638Z,100304.88
2023-09-23T20:23:06.620Z,100308.59
2023-09-23T20:25:34.282Z,100312.72
2023-09-23T20:28:01.900Z,100311.94
2023-09-23T20:30:29.620Z,100309.47
2023-09-23T20:32:57.368Z,100322.06
2023-09-23T20:35:25.059Z,100321.44
2023-09-23T20:37:53.135Z,100326.41
2023-09-23T20:40:22.119Z,100330.06
2023-09-23T20:42:49.672Z,100321.88
2023-09-23T20:45:17.450Z,100328.03
2023-09-23T20:47:45.149Z,100332.97
2023-09-23T20:50:13.553Z,100328.47
2023-09-23T20:52:42.483Z,100332.47
2023-09-23T20:55:10.657Z,100342.03
2023-09-23T20:57:39.568Z,100344.81
2023-09-23T21:00:15.147Z,100352.63
2023-09-23T21:02:43.514Z,100363.75
2023-09-23T21:05:11.330Z,100366.88
2023-09-23T21:07:38.878Z,100367.69
2023-09-23T21:10:08.171Z,100375.28
2023-09-23T21:12:36.033Z,100379.59
2023-09-23T21:15:06.544Z,100375.06
2023-09-23T21:17:35.960Z,100383.56
2023-09-23T21:20:03.608Z,100382.91
2023-09-23T21:22:31.169Z,100382.56
2023-09-23T21:24:58.783Z,100383.44
2023-09-23T21:27:26.580Z,100388.50
2023-09-23T21:29:54.248Z,100384.50
2023-09-23T21:32:23.335Z,100393.81
2023-09-23T21:34:51.592Z,100397.28
2023-09-23T21:37:19.185Z,100403.28
2023-09-23T21:39:46.822Z,100401.00
2023-09-23T21:42:14.365Z,100404.50
2023-09-23T21:44:45.259Z,100410.91
2023-09-23T21:47:16.506Z,100410.16
2023-09-23T21:49:46.059Z,100408.16
2023-09-23T21:52:13.755Z,100407.66
2023-09-23T21:54:41.302Z,100404.78
2023-09-23T21:57:09.251Z,100402.00
2023-09-23T21:59:38.606Z,100407.47
2023-09-23T22:02:06.975Z,100412.06
2023-09-23T22:04:35.100Z,100409.50
2023-09-23T22:07:04.208Z,100407.63
2023-09-23T22:09:31.937Z,100411.25
2023-09-23T22:12:02.453Z,100415.19
2023-09-23T22:14:30.440Z,100413.03
2023-09-23T22:16:58.033Z,100412.34
2023-09-23T22:19:26.120Z,100420.44
2023-09-23T22:21:53.754Z,100416.69
2023-09-23T22:24:23.010Z,100420.78
2023-09-23T22:26:53.897Z,100424.72
2023-09-23T22:29:21.841Z,100426.63
2023-09-23T22:31:49.512Z,100425.06
2023-09-23T22:34:17.110Z,100427.75
2023-09-23T22:36:46.123Z,100421.59
2023-09-23T22:39:14.045Z,100424.00
2023-09-23T22:41:43.643Z,100425.66
2023-09-23T22:44:11.357Z,100430.75
2023-09-23T22:46:39.815Z,100432.88
2023-09-23T22:49:07.768Z,100437.38
2023-09-23T22:51:35.319Z,100435.28
2023-09-23T22:54:02.954Z,100426.81
2023-09-23T22:56:34.419Z,100430.28
2023-09-23T22:59:03.420Z,100430.38
2023-09-23T23:01:32.418Z,100428.94
2023-09-23T23:04:01.270Z,100436.16
2023-09-23T23:06:29.859Z,100439.78
2023-09-23T23:08:57.931Z,100444.78
2023-09-23T23:11:25.654Z,100441.59
2023-09-23T23:13:53.269Z,100446.31
2023-09-23T23:16:22.199Z,100452.66
2023-09-23T23:18:49.849Z,100452.34
2023-09-23T23:21:17.464Z,100457.44
2023-09-23T23:23:45.161Z,100457.75
2023-09-23T23:26:13.641Z,100458.22
2023-09-23T23:28:41.230Z,100462.81
2023-09-23T23:31:09.254Z,100468.31
2023-09-23T23:33:38.276Z,100471.47
2023-09-23T23:36:07.454Z,100472.63
2023-09-23T23:38:35.064Z,100481.16
2023-09-23T23:41:03.049Z,100479.63
2023-09-23T23:43:30.807Z,100475.91
2023-09-23T23:45:59.668Z,100478.09
2023-09-23T23:48:28.865Z,100483.66
2023-09-23T23:51:05.358Z,100489.78
2023-09-23T23:53:33.383Z,100487.41
2023-09-23T23:56:01.573Z,100493.72
2023-09-23T23:58:29.191Z,100492.69
